createdAt,value
2023-04-08T00:01:30.925Z,8.49
2023-04-08T00:03:57.584Z,8.45
2023-04-08T00:06:24.391Z,8.42
2023-04-08T00:08:51.158Z,8.33
2023-04-08T00:11:17.692Z,8.29
2023-04-08T00:13:44.195Z,8.26
2023-04-08T00:16:10.692Z,8.30
2023-04-08T00:18:38.508Z,8.23
2023-04-08T00:21:05.064Z,8.23
2023-04-08T00:23:31.559Z,8.26
2023-04-08T00:25:58.140Z,8.27
2023-04-08T00:28:24.609Z,8.28
2023-04-08T00:30:52.653Z,8.27
2023-04-08T00:33:19.265Z,8.24
2023-04-08T00:35:46.334Z,8.20
2023-04-08T00:38:12.953Z,8.17
2023-04-08T00:40:39.467Z,8.15
2023-04-08T00:43:06.018Z,8.10
2023-04-08T00:45:33.750Z,8.04
2023-04-08T00:48:01.419Z,7.99
2023-04-08T00:50:27.992Z,7.99
2023-04-08T00:52:54.504Z,7.98
2023-04-08T00:55:21.083Z,7.97
2023-04-08T00:57:48.412Z,7.97
2023-04-08T01:00:16.529Z,7.93
2023-04-08T01:02:51.368Z,7.95
2023-04-08T01:05:23.709Z,7.87
2023-04-08T01:07:51.016Z,7.77
2023-04-08T01:10:33.476Z,7.74
2023-04-08T01:13:08.573Z,7.54
2023-04-08T01:15:37.755Z,7.46
2023-04-08T01:18:08.480Z,7.39
2023-04-08T01:20:35.756Z,7.34
2023-04-08T01:23:14.550Z,7.31
2023-04-08T01:25:47.346Z,7.31
2023-04-08T01:28:18.063Z,7.30
2023-04-08T01:30:47.860Z,7.31
2023-04-08T01:33:16.889Z,7.35
2023-04-08T01:35:45.709Z,7.37
2023-04-08T01:38:16.660Z,7.34
2023-04-08T01:40:43.934Z,7.35
2023-04-08T01:43:13.542Z,7.30
2023-04-08T01:45:40.117Z,7.22
2023-04-08T01:48:07.585Z,7.17
2023-04-08T01:50:35.248Z,7.12
2023-04-08T01:53:02.312Z,7.16
2023-04-08T01:55:29.307Z,7.12
2023-04-08T01:57:59.796Z,7.17
2023-04-08T02:00:29.487Z,7.23
2023-04-08T02:02:57.817Z,7.28
2023-04-08T02:05:24.625Z,7.31
2023-04-08T02:07:52.059Z,7.30
2023-04-08T02:10:18.641Z,7.29
2023-04-08T02:12:46.823Z,7.25
2023-04-08T02:15:14.275Z,7.21
2023-04-08T02:17:52.824Z,7.13
2023-04-08T02:20:26.982Z,7.04
2023-04-08T02:23:05.954Z,6.98
2023-04-08T02:25:40.054Z,6.91
2023-04-08T02:28:09.681Z,6.88
2023-04-08T02:30:37.869Z,6.84
2023-04-08T02:33:05.402Z,6.79
2023-04-08T02:35:32.888Z,6.80
2023-04-08T02:37:59.529Z,6.74
2023-04-08T02:40:26.255Z,6.71
2023-04-08T02:42:53.247Z,6.64
2023-04-08T02:45:20.269Z,6.62
2023-04-08T02:47:47.180Z,6.56
2023-04-08T02:50:13.656Z,6.49
2023-04-08T02:52:40.502Z,6.40
2023-04-08T02:55:09.955Z,6.34
2023-04-08T02:57:37.930Z,6.34
2023-04-08T03:00:05.356Z,6.33
2023-04-08T03:02:31.937Z,6.30
2023-04-08T03:04:58.841Z,6.32
2023-04-08T03:07:25.703Z,6.36
2023-04-08T03:09:52.441Z,6.41
2023-04-08T03:12:18.919Z,6.45
2023-04-08T03:14:45.400Z,6.45
2023-04-08T03:17:11.864Z,6.42
2023-04-08T03:19:38.318Z,6.39
2023-04-08T03:22:04.756Z,6.36
2023-04-08T03:24:31.249Z,6.28
2023-04-08T03:26:57.943Z,6.15
2023-04-08T03:29:24.435Z,6.09
2023-04-08T03:31:51.408Z,6.11
2023-04-08T03:34:18.003Z,6.07
2023-04-08T03:36:44.553Z,6.10
2023-04-08T03:39:11.146Z,6.10
2023-04-08T03:41:37.714Z,6.06
2023-04-08T03:44:04.821Z,6.04
2023-04-08T03:46:31.382Z,6.04
2023-04-08T03:48:57.887Z,6.01
2023-04-08T03:51:24.457Z,5.95
2023-04-08T03:53:50.927Z,5.91
2023-04-08T03:56:17.458Z,5.86
2023-04-08T03:58:43.984Z,5.78
2023-04-08T04:01:10.676Z,5.71
2023-04-08T04:03:37.346Z,5.63
2023-04-08T04:06:04.054Z,5.57
2023-04-08T04:08:30.584Z,5.54
2023-04-08T04:10:59.266Z,5.51
2023-04-08T04:13:25.812Z,5.49
2023-04-08T04:15:52.484Z,5.48
2023-04-08T04:18:19.084Z,5.47
2023-04-08T04:20:45.670Z,5.46
2023-04-08T04:23:12.261Z,5.39
2023-04-08T04:25:41.801Z,5.34
2023-04-08T04:28:10.048Z,5.26
2023-04-08T04:30:40.601Z,5.20
2023-04-08T04:33:07.544Z,5.14
2023-04-08T04:35:34.046Z,5.08
2023-04-08T04:38:00.714Z,4.97
2023-04-08T04:40:27.446Z,4.87
2023-04-08T04:42:53.946Z,4.88
2023-04-08T04:45:20.407Z,4.88
2023-04-08T04:47:47.015Z,4.89
2023-04-08T04:50:13.620Z,4.94
2023-04-08T04:52:40.419Z,4.97
2023-04-08T04:55:07.302Z,5.01
2023-04-08T04:57:33.894Z,5.05
2023-04-08T05:00:01.768Z,5.10
2023-04-08T05:02:29.407Z,5.13
2023-04-08T05:04:56.122Z,5.18
2023-04-08T05:07:22.809Z,5.23
2023-04-08T05:09:49.315Z,5.29
2023-04-08T05:12:16.285Z,5.36
2023-04-08T05:14:42.762Z,5.44
2023-04-08T05:17:09.270Z,5.54
2023-04-08T05:19:35.796Z,5.64
2023-04-08T05:22:02.297Z,5.73
2023-04-08T05:24:28.783Z,5.82
2023-04-08T05:26:55.273Z,5.89
2023-04-08T05:29:22.044Z,5.99
2023-04-08T05:31:48.636Z,6.06
2023-04-08T05:34:16.041Z,6.15
2023-04-08T05:36:42.776Z,6.21
2023-04-08T05:39:09.284Z,6.26
2023-04-08T05:41:36.127Z,6.31
2023-04-08T05:44:02.679Z,6.37
2023-04-08T05:46:29.268Z,6.42
2023-04-08T05:48:55.965Z,6.47
2023-04-08T05:51:22.439Z,6.50
2023-04-08T05:53:48.945Z,6.56
2023-04-08T05:56:15.472Z,6.69
2023-04-08T05:58:41.954Z,6.77
2023-04-08T06:01:08.482Z,6.85
2023-04-08T06:03:35.117Z,6.93
2023-04-08T06:06:01.809Z,7.05
2023-04-08T06:08:28.382Z,7.20
2023-04-08T06:10:54.872Z,7.28
2023-04-08T06:13:22.041Z,7.36
2023-04-08T06:15:51.234Z,7.42
2023-04-08T06:18:18.046Z,7.52
2023-04-08T06:20:44.594Z,7.59
2023-04-08T06:23:11.169Z,7.67
2023-04-08T06:25:37.623Z,7.77
2023-04-08T06:28:04.216Z,7.83
2023-04-08T06:30:30.691Z,7.85
2023-04-08T06:32:57.184Z,8.01
2023-04-08T06:35:23.696Z,8.20
2023-04-08T06:37:50.296Z,8.52
2023-04-08T06:40:16.746Z,8.59
2023-04-08T06:42:44.560Z,8.92
2023-04-08T06:45:11.392Z,9.14
2023-04-08T06:47:37.899Z,9.32
2023-04-08T06:50:05.291Z,9.47
2023-04-08T06:52:31.865Z,9.60
2023-04-08T06:54:58.363Z,9.77
2023-04-08T06:57:24.965Z,9.87
2023-04-08T06:59:53.075Z,10.12
2023-04-08T07:02:19.743Z,10.32
2023-04-08T07:04:47.007Z,10.62
2023-04-08T07:07:13.610Z,10.96
2023-04-08T07:09:41.542Z,11.09
2023-04-08T07:12:07.986Z,11.11
2023-04-08T07:14:34.486Z,11.24
2023-04-08T07:17:00.963Z,11.56
2023-04-08T07:19:27.713Z,11.73
2023-04-08T07:21:54.265Z,11.84
2023-04-08T07:24:21.097Z,11.85
2023-04-08T07:26:47.913Z,11.67
2023-04-08T07:29:14.579Z,11.66
2023-04-08T07:31:41.130Z,11.82
2023-04-08T07:34:07.576Z,12.11
2023-04-08T07:36:34.124Z,12.12
2023-04-08T07:39:00.857Z,12.05
2023-04-08T07:41:27.400Z,12.08
2023-04-08T07:43:53.971Z,12.19
2023-04-08T07:46:21.286Z,12.29
2023-04-08T07:48:47.856Z,12.38
2023-04-08T07:51:14.932Z,12.33
2023-04-08T07:53:41.576Z,12.36
2023-04-08T07:56:13.032Z,12.55
2023-04-08T07:58:40.549Z,12.78
2023-04-08T08:01:21.242Z,12.81
2023-04-08T08:03:52.184Z,12.91
2023-04-08T08:06:19.373Z,13.10
2023-04-08T08:08:45.894Z,13.13
2023-04-08T08:11:12.627Z,12.88
2023-04-08T08:13:39.132Z,12.82
2023-04-08T08:16:09.248Z,13.04
2023-04-08T08:18:36.955Z,13.24
2023-04-08T08:21:03.985Z,13.40
2023-04-08T08:23:30.487Z,13.87
2023-04-08T08:26:01.900Z,14.35
2023-04-08T08:28:28.844Z,14.51
2023-04-08T08:30:55.360Z,14.84
2023-04-08T08:33:21.982Z,15.16
2023-04-08T08:35:48.425Z,15.26
2023-04-08T08:38:15.057Z,15.25
2023-04-08T08:40:41.563Z,15.33
2023-04-08T08:43:09.531Z,15.76
2023-04-08T08:45:42.319Z,15.72
2023-04-08T08:48:09.422Z,15.88
2023-04-08T08:50:36.236Z,15.83
2023-04-08T08:53:03.502Z,15.58
2023-04-08T08:55:50.882Z,15.48
2023-04-08T08:58:19.072Z,15.41
2023-04-08T09:00:45.565Z,15.74
2023-04-08T09:03:16.625Z,15.76
2023-04-08T09:06:00.764Z,15.96
2023-04-08T09:08:30.630Z,16.06
2023-04-08T09:11:12.432Z,16.20
2023-04-08T09:13:39.272Z,16.47
2023-04-08T09:16:10.893Z,16.17
2023-04-08T09:18:38.879Z,16.47
2023-04-08T09:21:06.827Z,16.74
2023-04-08T09:23:46.273Z,16.65
2023-04-08T09:26:16.820Z,16.84
2023-04-08T09:28:45.191Z,16.64
2023-04-08T09:31:41.517Z,16.53
2023-04-08T09:34:13.508Z,16.36
2023-04-08T09:36:40.048Z,16.62
2023-04-08T09:39:07.805Z,16.79
2023-04-08T09:41:36.164Z,16.26
2023-04-08T09:44:08.094Z,16.39
2023-04-08T09:46:49.747Z,16.13
2023-04-08T09:49:27.316Z,15.99
2023-04-08T09:52:07.070Z,15.86
2023-04-08T09:54:59.771Z,15.32
2023-04-08T09:57:58.713Z,14.77
2023-04-08T10:00:32.464Z,14.92
2023-04-08T10:03:21.084Z,14.62
2023-04-08T10:05:49.303Z,14.50
2023-04-08T10:08:16.448Z,14.50
2023-04-08T10:10:43.381Z,14.65
2023-04-08T10:13:10.398Z,14.68
2023-04-08T10:15:38.452Z,14.73
2023-04-08T10:18:05.843Z,14.90
2023-04-08T10:20:38.618Z,15.09
2023-04-08T10:23:15.704Z,15.14
2023-04-08T10:25:42.670Z,15.19
2023-04-08T10:28:12.143Z,15.24
2023-04-08T10:30:45.709Z,15.20
2023-04-08T10:33:40.858Z,15.16
2023-04-08T10:36:08.596Z,14.85
2023-04-08T10:38:35.769Z,14.83
2023-04-08T10:41:02.708Z,14.66
2023-04-08T10:43:34.228Z,14.63
2023-04-08T10:46:01.581Z,14.62
2023-04-08T10:48:31.257Z,14.50
2023-04-08T10:51:02.767Z,14.27
2023-04-08T10:53:31.213Z,14.05
2023-04-08T10:56:08.126Z,13.91
2023-04-08T10:58:36.537Z,13.64
2023-04-08T11:01:05.637Z,13.48
2023-04-08T11:03:33.991Z,13.36
2023-04-08T11:06:01.952Z,13.42
2023-04-08T11:08:32.871Z,13.33
2023-04-08T11:11:03.086Z,13.21
2023-04-08T11:13:30.896Z,13.05
2023-04-08T11:15:59.956Z,13.01
2023-04-08T11:18:27.419Z,13.00
2023-04-08T11:20:54.521Z,13.00
2023-04-08T11:23:22.916Z,12.91
2023-04-08T11:25:50.814Z,12.94
2023-04-08T11:28:18.339Z,13.08
2023-04-08T11:30:45.239Z,13.09
2023-04-08T11:33:13.336Z,13.23
2023-04-08T11:35:41.764Z,13.24
2023-04-08T11:38:09.580Z,13.22
2023-04-08T11:40:36.547Z,13.29
2023-04-08T11:43:11.071Z,13.08
2023-04-08T11:45:41.700Z,13.23
2023-04-08T11:48:12.816Z,13.21
2023-04-08T11:50:40.373Z,13.15
2023-04-08T11:53:25.431Z,13.16
2023-04-08T11:55:52.544Z,13.47
2023-04-08T11:58:19.332Z,13.78
2023-04-08T12:00:46.025Z,14.01
2023-04-08T12:03:13.559Z,14.37
2023-04-08T12:05:40.872Z,14.88
2023-04-08T12:08:07.355Z,15.41
2023-04-08T12:10:33.886Z,15.63
2023-04-08T12:13:00.388Z,15.71
2023-04-08T12:15:26.919Z,15.66
2023-04-08T12:17:53.585Z,15.77
2023-04-08T12:20:20.279Z,16.03
2023-04-08T12:22:47.122Z,16.02
2023-04-08T12:25:13.544Z,16.15
2023-04-08T12:27:39.998Z,16.13
2023-04-08T12:30:07.333Z,16.05
2023-04-08T12:32:34.839Z,15.97
2023-04-08T12:35:01.446Z,15.82
2023-04-08T12:37:28.685Z,15.57
2023-04-08T12:39:55.437Z,15.47
2023-04-08T12:42:22.049Z,15.63
2023-04-08T12:44:48.532Z,15.60
2023-04-08T12:47:15.007Z,15.34
2023-04-08T12:52:10.864Z,15.68
2023-04-08T12:54:37.444Z,16.82
2023-04-08T12:57:04.779Z,17.50
2023-04-08T12:59:32.237Z,18.30
2023-04-08T13:01:58.970Z,20.27
2023-04-08T13:04:25.487Z,19.37
2023-04-08T13:06:52.296Z,18.74
2023-04-08T13:09:18.785Z,18.64
2023-04-08T13:11:45.233Z,18.63
2023-04-08T13:14:12.581Z,20.43
2023-04-08T13:16:39.141Z,22.55
2023-04-08T13:19:05.597Z,22.99
2023-04-08T13:21:32.375Z,22.83
2023-04-08T13:23:58.927Z,22.36
2023-04-08T13:26:25.457Z,21.77
2023-04-08T13:28:57.291Z,21.01
2023-04-08T13:31:24.682Z,20.61
2023-04-08T13:33:51.219Z,20.63
2023-04-08T13:36:17.755Z,19.69
2023-04-08T13:38:45.771Z,19.27
2023-04-08T13:41:12.424Z,19.07
2023-04-08T13:43:38.877Z,18.86
2023-04-08T13:46:05.536Z,18.59
2023-04-08T13:48:32.100Z,18.55
2023-04-08T13:50:58.563Z,18.17
2023-04-08T13:53:25.125Z,17.41
2023-04-08T13:55:55.208Z,16.83
2023-04-08T13:58:24.181Z,16.40
2023-04-08T14:00:54.370Z,16.39
2023-04-08T14:03:21.068Z,16.15
2023-04-08T14:05:47.668Z,15.92
2023-04-08T14:08:14.127Z,15.50
2023-04-08T14:10:42.267Z,15.17
2023-04-08T14:13:09.155Z,15.14
2023-04-08T14:15:36.170Z,14.90
2023-04-08T14:18:02.807Z,14.67
2023-04-08T14:20:29.953Z,14.40
2023-04-08T14:22:56.765Z,14.28
2023-04-08T14:25:23.774Z,14.04
2023-04-08T14:27:58.035Z,13.87
2023-04-08T14:30:27.069Z,13.77
2023-04-08T14:32:53.964Z,13.77
2023-04-08T14:35:20.624Z,13.83
2023-04-08T14:37:47.122Z,13.77
2023-04-08T14:40:13.684Z,13.69
2023-04-08T14:42:40.245Z,13.51
2023-04-08T14:45:07.431Z,13.30
2023-04-08T14:47:33.967Z,13.24
2023-04-08T14:50:00.448Z,13.08
2023-04-08T14:52:27.386Z,13.02
2023-04-08T14:54:53.931Z,13.04
2023-04-08T14:57:20.441Z,13.02
2023-04-08T14:59:46.932Z,12.96
2023-04-08T15:02:13.643Z,12.98
2023-04-08T15:04:40.444Z,12.88
2023-04-08T15:07:07.584Z,12.86
2023-04-08T15:09:34.093Z,12.74
2023-04-08T15:12:01.384Z,12.77
2023-04-08T15:14:27.896Z,12.75
2023-04-08T15:16:54.403Z,12.75
2023-04-08T15:19:21.334Z,12.74
2023-04-08T15:21:47.842Z,12.71
2023-04-08T15:24:14.376Z,12.64
2023-04-08T15:26:41.119Z,12.54
2023-04-08T15:29:07.853Z,12.42
2023-04-08T15:31:35.195Z,12.23
2023-04-08T15:34:02.871Z,12.13
2023-04-08T15:36:30.233Z,12.08
2023-04-08T15:38:56.964Z,11.99
2023-04-08T15:41:23.471Z,11.92
2023-04-08T15:43:50.255Z,11.90
2023-04-08T15:46:21.387Z,11.93
2023-04-08T15:48:48.607Z,11.86
2023-04-08T15:51:15.678Z,11.89
2023-04-08T15:53:42.859Z,11.93
2023-04-08T15:56:13.922Z,12.02
2023-04-08T15:58:40.827Z,11.97
2023-04-08T16:01:07.345Z,11.89
2023-04-08T16:03:34.474Z,11.77
2023-04-08T16:06:01.128Z,11.80
2023-04-08T16:08:27.704Z,11.87
2023-04-08T16:11:01.294Z,11.92
2023-04-08T16:13:29.055Z,11.89
2023-04-08T16:15:56.674Z,11.91
2023-04-08T16:18:23.184Z,11.92
2023-04-08T16:20:50.077Z,11.89
2023-04-08T16:23:17.884Z,11.83
2023-04-08T16:25:45.206Z,11.88
2023-04-08T16:28:11.942Z,11.93
2023-04-08T16:30:38.853Z,11.95
2023-04-08T16:33:06.292Z,11.89
2023-04-08T16:35:32.889Z,11.84
2023-04-08T16:37:59.613Z,11.84
2023-04-08T16:40:26.268Z,11.80
2023-04-08T16:42:52.970Z,11.74
2023-04-08T16:45:19.593Z,11.71
2023-04-08T16:47:46.285Z,11.67
2023-04-08T16:50:12.946Z,11.64
2023-04-08T16:52:39.480Z,11.60
2023-04-08T16:55:06.635Z,11.53
2023-04-08T16:57:33.198Z,11.51
2023-04-08T16:59:59.705Z,11.45
2023-04-08T17:02:26.631Z,11.38
2023-04-08T17:04:53.229Z,11.34
2023-04-08T17:07:19.899Z,11.26
2023-04-08T17:09:51.519Z,11.26
2023-04-08T17:12:18.162Z,11.21
2023-04-08T17:14:44.686Z,11.12
2023-04-08T17:17:11.374Z,11.05
2023-04-08T17:19:38.336Z,11.03
2023-04-08T17:22:04.879Z,11.01
2023-04-08T17:24:31.714Z,10.96
2023-04-08T17:26:58.620Z,10.94
2023-04-08T17:29:25.713Z,10.86
2023-04-08T17:31:52.534Z,10.83
2023-04-08T17:34:19.158Z,10.76
2023-04-08T17:36:45.978Z,10.67
2023-04-08T17:39:12.405Z,10.61
2023-04-08T17:41:40.733Z,10.58
2023-04-08T17:44:08.004Z,10.52
2023-04-08T17:46:34.588Z,10.48
2023-04-08T17:49:01.174Z,10.43
2023-04-08T17:51:28.872Z,10.41
2023-04-08T17:53:56.156Z,10.38
2023-04-08T17:56:23.611Z,10.33
2023-04-08T17:58:50.377Z,10.30
2023-04-08T18:01:17.252Z,10.23
2023-04-08T18:03:44.771Z,10.20
2023-04-08T18:06:11.233Z,10.18
2023-04-08T18:08:37.923Z,10.13
2023-04-08T18:11:07.192Z,10.13
2023-04-08T18:13:33.808Z,10.11
2023-04-08T18:16:00.378Z,10.11
2023-04-08T18:18:26.892Z,10.09
2023-04-08T18:20:53.528Z,10.05
2023-04-08T18:23:20.065Z,10.03
2023-04-08T18:25:47.420Z,9.99
2023-04-08T18:28:14.080Z,9.97
2023-04-08T18:30:40.730Z,9.94
2023-04-08T18:33:08.596Z,9.92
2023-04-08T18:35:35.232Z,9.88
2023-04-08T18:38:01.734Z,9.86
2023-04-08T18:40:28.264Z,9.84
2023-04-08T18:42:54.793Z,9.83
2023-04-08T18:45:21.292Z,9.82
2023-04-08T18:47:47.770Z,9.82
2023-04-08T18:50:14.586Z,9.80
2023-04-08T18:52:41.172Z,9.79
2023-04-08T18:55:08.108Z,9.79
2023-04-08T18:57:34.609Z,9.77
2023-04-08T19:00:01.410Z,9.76
2023-04-08T19:02:28.008Z,9.82
2023-04-08T19:04:55.868Z,9.85
2023-04-08T19:07:23.376Z,9.89
2023-04-08T19:09:49.799Z,9.94
2023-04-08T19:12:16.501Z,9.95
2023-04-08T19:14:43.054Z,10.00
2023-04-08T19:17:09.857Z,10.00
2023-04-08T19:19:36.484Z,10.02
2023-04-08T19:22:05.826Z,10.00
2023-04-08T19:24:33.231Z,10.00
2023-04-08T19:26:59.902Z,9.96
2023-04-08T19:29:29.682Z,9.95
2023-04-08T19:31:57.533Z,9.90
2023-04-08T19:34:24.032Z,9.86
2023-04-08T19:36:50.614Z,9.83
2023-04-08T19:39:17.141Z,9.80
2023-04-08T19:41:43.649Z,9.78
2023-04-08T19:44:10.379Z,9.75
2023-04-08T19:46:37.439Z,9.72
2023-04-08T19:49:04.459Z,9.70
2023-04-08T19:51:32.833Z,9.67
2023-04-08T19:53:59.452Z,9.64
2023-04-08T19:56:26.466Z,9.62
2023-04-08T19:58:53.564Z,9.60
2023-04-08T20:01:20.693Z,9.57
2023-04-08T20:03:50.395Z,9.55
2023-04-08T20:06:20.213Z,9.50
2023-04-08T20:08:46.835Z,9.50
2023-04-08T20:11:13.377Z,9.45
2023-04-08T20:13:40.216Z,9.41
2023-04-08T20:16:07.560Z,9.39
2023-04-08T20:18:34.399Z,9.37
2023-04-08T20:21:01.108Z,9.34
2023-04-08T20:23:28.535Z,9.31
2023-04-08T20:25:55.174Z,9.30
2023-04-08T20:28:21.726Z,9.33
2023-04-08T20:30:50.121Z,9.33
2023-04-08T20:33:16.889Z,9.33
2023-04-08T20:35:43.869Z,9.32
2023-04-08T20:38:10.381Z,9.31
2023-04-08T20:40:37.083Z,9.33
2023-04-08T20:43:03.753Z,9.34
2023-04-08T20:45:30.805Z,9.33
2023-04-08T20:47:57.404Z,9.28
2023-04-08T20:50:24.720Z,9.23
2023-04-08T20:52:51.736Z,9.15
2023-04-08T20:55:18.259Z,9.10
2023-04-08T20:57:44.850Z,9.06
2023-04-08T21:00:13.708Z,9.02
2023-04-08T21:02:40.462Z,8.94
2023-04-08T21:05:07.738Z,8.93
2023-04-08T21:07:35.014Z,8.89
2023-04-08T21:10:01.575Z,8.86
2023-04-08T21:12:28.083Z,8.82
2023-04-08T21:14:54.589Z,8.80
2023-04-08T21:17:21.111Z,8.77
2023-04-08T21:19:47.586Z,8.80
2023-04-08T21:22:14.048Z,8.82
2023-04-08T21:24:40.721Z,8.86
2023-04-08T21:27:07.266Z,8.92
2023-04-08T21:29:33.736Z,8.96
2023-04-08T21:32:00.483Z,8.93
2023-04-08T21:34:27.227Z,8.94
2023-04-08T21:36:53.756Z,8.90
2023-04-08T21:39:20.538Z,8.87
2023-04-08T21:41:48.162Z,8.85
2023-04-08T21:44:15.709Z,8.79
2023-04-08T21:46:42.354Z,8.76
2023-04-08T21:49:11.213Z,8.71
2023-04-08T21:51:39.191Z,8.69
2023-04-08T21:54:06.172Z,8.65
2023-04-08T21:56:32.864Z,8.59
2023-04-08T21:58:59.609Z,8.57
2023-04-08T22:01:26.927Z,8.52
2023-04-08T22:03:55.473Z,8.51
2023-04-08T22:06:31.459Z,8.49
2023-04-08T22:08:59.314Z,8.45
2023-04-08T22:11:25.970Z,8.41
2023-04-08T22:13:52.523Z,8.38
2023-04-08T22:16:19.129Z,8.36
2023-04-08T22:18:45.674Z,8.41
2023-04-08T22:21:12.453Z,8.44
2023-04-08T22:23:39.094Z,8.46
2023-04-08T22:26:05.605Z,8.49
2023-04-08T22:28:34.230Z,8.48
2023-04-08T22:31:01.286Z,8.46
2023-04-08T22:33:28.048Z,8.46
2023-04-08T22:35:57.644Z,8.41
2023-04-08T22:38:24.550Z,8.38
2023-04-08T22:40:51.184Z,8.31
2023-04-08T22:43:17.617Z,8.25
2023-04-08T22:45:44.156Z,8.21
2023-04-08T22:48:10.680Z,8.14
2023-04-08T22:50:37.194Z,8.10
2023-04-08T22:53:04.011Z,8.05
2023-04-08T22:55:30.767Z,8.01
2023-04-08T22:57:57.241Z,7.95
2023-04-08T23:00:23.954Z,7.92
2023-04-08T23:02:50.761Z,7.86
2023-04-08T23:05:17.640Z,7.84
2023-04-08T23:07:44.231Z,7.82
2023-04-08T23:10:11.037Z,7.81
2023-04-08T23:12:37.536Z,7.78
2023-04-08T23:15:04.570Z,7.81
2023-04-08T23:17:31.128Z,7.85
2023-04-08T23:19:57.829Z,7.87
2023-04-08T23:22:24.380Z,7.95
2023-04-08T23:24:50.869Z,7.99
2023-04-08T23:27:17.403Z,7.97
2023-04-08T23:29:43.860Z,7.98
2023-04-08T23:32:10.418Z,7.98
2023-04-08T23:34:37.636Z,7.97
2023-04-08T23:37:04.464Z,7.95
2023-04-08T23:39:31.903Z,7.93
2023-04-08T23:41:58.492Z,7.89
2023-04-08T23:44:25.040Z,7.86
2023-04-08T23:46:51.581Z,7.83
2023-04-08T23:49:18.125Z,7.80
2023-04-08T23:51:44.701Z,7.77
2023-04-08T23:54:11.305Z,7.75
2023-04-08T23:56:41.148Z,7.72
2023-04-08T23:59:07.707Z,7.72
